Time;durP1;ratioP1;P1;durP2;ratioP2;P2;SDS_P1;SDS_P2;PMS_P1;PMS_P2;Temp;Humidity;BMP_temperature;BMP_pressure;BME280_temperature;BME280_humidity;BME280_pressure;Samples;Min_cycle;Max_cycle;Signal;HPM_P1;HPM_P2
2022/10/12 00:01:23;;;;;;;9.07;5.05;;;10.70;61.20;;;;;;5074813;28;20043;-68
2022/10/12 00:03:49;;;;;;;6.85;4.88;;;10.70;61.20;;;;;;5075710;28;20460;-68
2022/10/12 00:06:20;;;;;;;7.38;4.82;;;10.70;61.00;;;;;;5082251;28;20025;-68
2022/10/12 00:08:47;;;;;;;7.60;4.97;;;10.70;61.00;;;;;;5081786;28;20028;-68
2022/10/12 00:11:22;;;;;;;7.20;4.80;;;10.60;61.00;;;;;;5082215;28;20050;-68
2022/10/12 00:13:48;;;;;;;6.85;4.82;;;10.60;60.90;;;;;;5077569;28;20058;-68
2022/10/12 00:16:16;;;;;;;5.75;4.07;;;10.60;61.70;;;;;;5081390;28;20033;-68
2022/10/12 00:18:41;;;;;;;6.63;4.38;;;10.60;61.00;;;;;;5062532;28;20048;-68
2022/10/12 00:21:11;;;;;;;6.88;4.60;;;10.60;61.00;;;;;;5087411;28;20104;-68
2022/10/12 00:23:38;;;;;;;7.75;4.80;;;10.60;61.20;;;;;;5060847;28;20648;-68
2022/10/12 00:26:06;;;;;;;6.43;4.60;;;10.60;61.30;;;;;;5086797;28;20031;-68
2022/10/12 00:28:33;;;;;;;7.85;4.78;;;10.60;61.30;;;;;;5066868;28;20063;-68
2022/10/12 00:31:00;;;;;;;7.47;5.00;;;10.60;61.30;;;;;;5072179;28;20020;-68
2022/10/12 00:33:28;;;;;;;8.18;4.78;;;10.60;61.30;;;;;;5085084;28;20040;-68
2022/10/12 00:35:54;;;;;;;6.05;4.80;;;10.60;61.30;;;;;;5082408;28;20055;-68
2022/10/12 00:38:21;;;;;;;7.00;4.53;;;10.60;61.20;;;;;;5075842;28;20092;-68
2022/10/12 00:40:47;;;;;;;6.45;4.70;;;10.60;61.30;;;;;;5073102;28;20025;-68
2022/10/12 00:43:33;;;;;;;6.40;4.15;;;10.60;61.20;;;;;;5080066;28;20064;-68
2022/10/12 00:46:00;;;;;;;7.43;4.32;;;10.60;61.10;;;;;;5086044;28;20100;-68
2022/10/12 00:48:26;;;;;;;5.47;3.92;;;10.60;61.20;;;;;;5085404;28;20029;-68
2022/10/12 00:50:53;;;;;;;7.22;4.75;;;10.70;61.30;;;;;;5077234;28;20052;-68
2022/10/12 00:53:24;;;;;;;7.25;4.55;;;10.70;61.20;;;;;;5078165;28;20025;-68
2022/10/12 00:55:53;;;;;;;7.03;4.70;;;10.70;61.00;;;;;;5082655;28;20122;-68
2022/10/12 00:58:20;;;;;;;6.90;5.03;;;10.80;60.90;;;;;;5083315;28;20024;-68
2022/10/12 01:00:46;;;;;;;7.85;4.78;;;10.80;60.70;;;;;;5077216;28;20021;-68
2022/10/12 01:03:16;;;;;;;8.52;5.40;;;10.80;60.80;;;;;;5081476;28;20056;-68
2022/10/12 01:05:42;;;;;;;8.40;5.28;;;10.90;60.70;;;;;;5085327;28;20028;-68
2022/10/12 01:08:08;;;;;;;7.43;4.82;;;10.90;60.60;;;;;;5078913;28;20379;-68
2022/10/12 01:10:33;;;;;;;6.93;4.78;;;10.90;60.60;;;;;;5081163;28;20016;-68
2022/10/12 01:13:00;;;;;;;6.28;4.57;;;10.90;60.60;;;;;;5085058;28;20103;-68
2022/10/12 01:15:32;;;;;;;8.02;5.00;;;10.90;60.60;;;;;;5067873;28;20112;-68
2022/10/12 01:18:18;;;;;;;6.90;4.82;;;10.90;60.60;;;;;;5086238;28;20495;-68
2022/10/12 01:21:20;;;;;;;5.85;4.50;;;10.90;60.50;;;;;;5079707;28;20036;-68
2022/10/12 01:23:45;;;;;;;;;;;10.80;60.30;;;;;;5059659;28;20040;-68
2022/10/12 01:26:35;;;;;;;5.32;4.00;;;10.80;60.30;;;;;;5085451;28;19904;-68
2022/10/12 01:29:39;;;;;;;5.95;4.47;;;10.80;60.30;;;;;;5081059;28;20059;-68
2022/10/12 01:32:27;;;;;;;7.88;4.72;;;10.80;60.20;;;;;;5075642;28;20088;-68
2022/10/12 01:34:58;;;;;;;6.50;4.38;;;10.80;60.30;;;;;;5070861;28;20031;-68
2022/10/12 01:37:41;;;;;;;6.68;4.70;;;10.80;60.30;;;;;;5077160;28;20074;-68
2022/10/12 01:40:23;;;;;;;5.95;4.25;;;10.80;60.30;;;;;;5081492;28;20083;-68
2022/10/12 01:42:49;;;;;;;8.55;4.90;;;10.70;60.40;;;;;;5078521;28;20187;-68
2022/10/12 01:45:18;;;;;;;8.23;4.78;;;10.70;60.30;;;;;;5084367;28;20025;-68
2022/10/12 01:47:51;;;;;;;7.15;4.50;;;10.80;60.30;;;;;;5084634;28;20017;-68
2022/10/12 01:50:20;;;;;;;6.95;4.63;;;10.80;60.40;;;;;;5082364;28;20032;-68
2022/10/12 01:52:59;;;;;;;5.85;4.28;;;10.70;60.30;;;;;;5063515;28;20111;-68
2022/10/12 01:55:28;;;;;;;5.13;4.28;;;10.70;60.30;;;;;;5065701;28;20025;-68
2022/10/12 01:57:56;;;;;;;6.53;4.60;;;10.70;60.40;;;;;;5082180;28;20028;-68
2022/10/12 02:00:22;;;;;;;6.63;4.38;;;10.70;60.40;;;;;;5079661;28;20419;-68
2022/10/12 02:03:09;;;;;;;6.20;4.55;;;10.70;60.50;;;;;;5080367;28;20067;-68
2022/10/12 02:06:02;;;;;;;6.75;4.25;;;10.70;60.50;;;;;;5071599;28;20469;-68
2022/10/12 02:08:34;;;;;;;5.45;3.80;;;10.70;60.50;;;;;;5070838;28;20058;-68
2022/10/12 02:11:08;;;;;;;6.60;4.50;;;10.70;60.50;;;;;;5080062;28;20025;-67
2022/10/12 02:13:43;;;;;;;4.93;3.80;;;10.70;60.50;;;;;;5059625;28;20033;-68
2022/10/12 02:16:13;;;;;;;5.28;3.78;;;10.80;60.60;;;;;;5074862;28;20048;-68
2022/10/12 02:18:43;;;;;;;5.68;4.32;;;10.80;60.50;;;;;;5057466;28;20499;-68
2022/10/12 02:21:11;;;;;;;6.90;4.20;;;10.80;60.40;;;;;;5062265;28;20024;-68
2022/10/12 02:23:38;;;;;;;4.60;3.92;;;10.80;60.50;;;;;;5077173;28;20025;-68
2022/10/12 02:26:05;;;;;;;7.07;4.60;;;10.90;60.50;;;;;;5077459;28;20032;-68
2022/10/12 02:28:33;;;;;;;6.10;4.18;;;10.90;60.40;;;;;;5076419;28;20112;-68
2022/10/12 02:31:04;;;;;;;7.07;4.00;;;10.90;60.40;;;;;;5080486;28;20028;-68
2022/10/12 02:33:30;;;;;;;;;;;10.90;60.40;;;;;;5080681;28;20025;-68
2022/10/12 02:36:20;;;;;;;4.78;3.90;;;10.90;60.40;;;;;;5081288;28;19908;-68
2022/10/12 02:39:04;;;;;;;7.25;4.35;;;10.90;60.40;;;;;;5067720;28;20040;-68
2022/10/12 02:41:37;;;;;;;5.93;4.13;;;10.90;60.40;;;;;;5056487;28;20020;-68
2022/10/12 02:44:07;;;;;;;6.22;4.53;;;10.90;60.40;;;;;;5064118;28;20029;-68
2022/10/12 02:46:35;;;;;;;6.60;4.07;;;10.90;60.40;;;;;;5078595;28;20440;-68
2022/10/12 02:49:02;;;;;;;7.35;4.57;;;10.90;60.40;;;;;;5077639;28;20053;-67
2022/10/12 02:51:30;;;;;;;5.30;4.07;;;10.90;60.40;;;;;;5078604;28;20379;-68
2022/10/12 02:53:55;;;;;;;6.03;3.65;;;10.80;60.40;;;;;;5050602;28;20052;-67
2022/10/12 02:56:22;;;;;;;6.35;4.00;;;10.80;60.40;;;;;;5071274;28;20082;-68
2022/10/12 02:58:48;;;;;;;7.07;4.30;;;10.80;60.40;;;;;;5079044;28;20028;-67
2022/10/12 03:01:15;;;;;;;7.63;4.13;;;10.80;60.50;;;;;;5073657;28;20025;-68
2022/10/12 03:03:42;;;;;;;5.78;4.13;;;10.80;60.50;;;;;;5071342;28;20545;-68
2022/10/12 03:06:08;;;;;;;6.45;4.20;;;10.80;60.70;;;;;;5058601;28;20032;-67
2022/10/12 03:08:34;;;;;;;6.28;4.13;;;10.80;60.50;;;;;;5079132;28;20668;-68
2022/10/12 03:11:12;;;;;;;7.43;4.72;;;10.80;60.50;;;;;;5081034;28;20020;-68
2022/10/12 03:13:38;;;;;;;6.90;4.78;;;10.80;60.70;;;;;;5078313;28;20052;-68
2022/10/12 03:16:06;;;;;;;7.55;4.63;;;10.70;60.60;;;;;;5078631;28;20087;-68
2022/10/12 03:18:33;;;;;;;6.32;4.55;;;10.70;60.70;;;;;;5077749;28;20040;-68
2022/10/12 03:20:59;;;;;;;5.90;4.20;;;10.80;60.70;;;;;;5073557;28;20020;-67
2022/10/12 03:23:24;;;;;;;5.53;4.20;;;10.70;60.70;;;;;;5077262;28;20483;-68
2022/10/12 03:25:50;;;;;;;6.78;4.03;;;10.70;60.80;;;;;;5077080;28;20047;-68
2022/10/12 03:28:16;;;;;;;5.63;4.10;;;10.70;60.80;;;;;;5065351;28;20106;-67
2022/10/12 03:30:42;;;;;;;6.50;3.88;;;10.80;60.90;;;;;;5076250;28;20564;-67
2022/10/12 03:33:08;;;;;;;4.82;3.38;;;10.80;61.00;;;;;;5072271;28;20103;-68
2022/10/12 03:35:34;;;;;;;5.72;3.60;;;10.80;61.00;;;;;;5076969;28;20032;-68
2022/10/12 03:37:59;;;;;;;4.97;3.58;;;10.90;61.20;;;;;;5048806;28;20940;-68
2022/10/12 03:40:25;;;;;;;5.28;3.63;;;10.90;61.10;;;;;;5049581;28;20484;-68
2022/10/12 03:42:51;;;;;;;4.55;3.42;;;11.00;61.40;;;;;;5072585;28;20104;-68
2022/10/12 03:45:16;;;;;;;5.60;3.45;;;11.00;61.30;;;;;;5075492;28;20055;-68
2022/10/12 03:47:42;;;;;;;6.38;3.70;;;11.00;61.20;;;;;;5068946;28;20025;-68
2022/10/12 03:50:08;;;;;;;4.63;3.15;;;11.10;61.20;;;;;;5055075;28;20510;-68
2022/10/12 03:52:33;;;;;;;5.43;3.42;;;11.10;61.30;;;;;;5076054;28;20115;-68
2022/10/12 03:54:59;;;;;;;4.57;3.45;;;11.10;61.20;;;;;;5076315;28;20060;-68
2022/10/12 03:57:25;;;;;;;4.00;3.30;;;11.20;61.20;;;;;;5071948;28;20033;-68
2022/10/12 03:59:50;;;;;;;6.05;3.83;;;11.10;61.10;;;;;;5075629;28;20020;-68
2022/10/12 04:02:16;;;;;;;6.53;3.70;;;11.20;61.30;;;;;;5075862;28;20036;-68
2022/10/12 04:04:42;;;;;;;5.60;4.18;;;11.20;61.20;;;;;;5074642;28;20078;-68
2022/10/12 04:07:08;;;;;;;7.20;4.18;;;11.20;61.00;;;;;;5075349;28;20021;-68
2022/10/12 04:09:33;;;;;;;6.53;4.40;;;11.20;61.00;;;;;;5078487;28;20041;-68
2022/10/12 04:11:59;;;;;;;6.20;3.95;;;11.20;61.00;;;;;;5073680;28;20036;-68
2022/10/12 04:14:24;;;;;;;6.13;4.07;;;11.20;60.90;;;;;;5060586;28;20060;-68
2022/10/12 04:16:53;;;;;;;6.65;4.15;;;11.20;61.00;;;;;;5073460;28;20414;-68
2022/10/12 04:19:19;;;;;;;5.80;4.30;;;11.20;61.30;;;;;;5077147;28;20047;-68
2022/10/12 04:21:44;;;;;;;6.55;4.07;;;11.10;61.20;;;;;;5060001;28;20024;-68
2022/10/12 04:24:10;;;;;;;5.38;4.00;;;11.10;61.30;;;;;;5079625;28;20024;-68
2022/10/12 04:26:36;;;;;;;7.32;4.10;;;11.10;61.30;;;;;;5078460;28;20115;-68
2022/10/12 04:29:02;;;;;;;6.22;4.70;;;11.10;61.30;;;;;;5066576;28;20116;-67
2022/10/12 04:31:27;;;;;;;5.82;4.47;;;11.10;61.20;;;;;;5079846;28;20039;-68
2022/10/12 04:33:56;;;;;;;5.45;3.80;;;11.10;61.20;;;;;;5073435;28;20086;-68
2022/10/12 04:36:25;;;;;;;7.25;5.00;;;11.10;61.30;;;;;;5078215;28;20059;-68
2022/10/12 04:38:52;;;;;;;7.57;4.85;;;11.10;61.30;;;;;;5069472;28;20032;-67
2022/10/12 04:41:18;;;;;;;6.68;4.65;;;11.20;61.40;;;;;;5076838;28;20017;-68
2022/10/12 04:43:43;;;;;;;7.22;5.07;;;11.20;61.30;;;;;;5078323;28;20032;-67
2022/10/12 04:46:10;;;;;;;6.93;4.10;;;11.20;61.60;;;;;;5072724;28;20032;-68
2022/10/12 04:48:35;;;;;;;5.88;4.32;;;11.20;61.30;;;;;;5076962;28;20047;-68
2022/10/12 04:51:01;;;;;;;5.97;4.00;;;11.20;61.40;;;;;;5081221;28;20064;-68
2022/10/12 04:53:27;;;;;;;6.38;4.18;;;11.20;61.50;;;;;;5079050;28;20060;-68
2022/10/12 04:55:53;;;;;;;7.13;4.43;;;11.20;61.60;;;;;;5080611;28;20028;-68
2022/10/12 04:58:19;;;;;;;6.38;4.40;;;11.30;61.70;;;;;;5075669;28;20060;-68
2022/10/12 05:00:47;;;;;;;6.55;4.35;;;11.30;61.70;;;;;;5076988;28;20056;-68
2022/10/12 05:03:13;;;;;;;6.05;3.83;;;11.30;61.80;;;;;;5060312;28;20059;-68
2022/10/12 05:05:39;;;;;;;6.18;3.90;;;11.40;61.80;;;;;;5076178;28;20483;-68
2022/10/12 05:08:04;;;;;;;6.90;4.13;;;11.40;61.80;;;;;;5079120;28;20031;-68
2022/10/12 05:10:30;;;;;;;5.13;3.65;;;11.50;61.90;;;;;;5053370;28;20033;-68
2022/10/12 05:12:56;;;;;;;6.60;4.05;;;11.50;61.80;;;;;;5081392;28;20021;-68
2022/10/12 05:15:22;;;;;;;5.38;3.97;;;11.60;61.90;;;;;;5081593;28;20528;-68
2022/10/12 05:17:47;;;;;;;4.43;3.40;;;11.70;61.90;;;;;;5073625;28;20025;-67
2022/10/12 05:20:13;;;;;;;7.40;3.63;;;11.70;61.80;;;;;;5070321;28;20045;-68
2022/10/12 05:22:39;;;;;;;5.35;3.90;;;11.70;61.80;;;;;;5061598;28;20025;-68
2022/10/12 05:25:06;;;;;;;5.30;3.95;;;11.80;61.70;;;;;;5078361;28;20091;-68
2022/10/12 05:27:32;;;;;;;5.85;3.72;;;11.80;61.80;;;;;;5080557;28;20055;-68
2022/10/12 05:29:58;;;;;;;5.78;3.67;;;11.90;61.90;;;;;;5068168;28;20037;-68
2022/10/12 05:32:23;;;;;;;5.05;3.63;;;12.00;61.90;;;;;;5081325;28;20043;-68
2022/10/12 05:34:49;;;;;;;4.45;3.42;;;12.00;61.80;;;;;;5076835;28;20036;-68
2022/10/12 05:37:15;;;;;;;5.53;3.97;;;12.10;61.90;;;;;;5082182;28;20500;-68
2022/10/12 05:39:41;;;;;;;6.53;3.80;;;12.20;61.90;;;;;;5075365;28;21375;-68
2022/10/12 05:42:06;;;;;;;5.07;3.47;;;12.20;61.90;;;;;;5058919;28;20039;-68
2022/10/12 05:44:32;;;;;;;4.65;3.42;;;12.30;61.90;;;;;;5075878;28;20047;-68
2022/10/12 05:46:58;;;;;;;5.32;3.40;;;12.30;61.80;;;;;;5058823;28;20123;-67
2022/10/12 05:49:23;;;;;;;5.20;3.75;;;12.40;61.80;;;;;;5077027;28;20029;-68
2022/10/12 05:51:49;;;;;;;6.53;3.90;;;12.40;61.90;;;;;;5056099;28;20036;-68
2022/10/12 05:54:15;;;;;;;4.70;3.17;;;12.50;62.20;;;;;;5070914;28;20036;-68
2022/10/12 05:56:40;;;;;;;5.78;3.70;;;12.60;62.40;;;;;;5068512;28;20040;-68
2022/10/12 05:59:06;;;;;;;5.00;3.78;;;12.70;62.40;;;;;;5072014;28;20041;-68
2022/10/12 06:01:32;;;;;;;5.93;3.75;;;12.80;62.30;;;;;;5072752;28;20020;-68
2022/10/12 06:03:58;;;;;;;5.85;4.35;;;12.90;62.10;;;;;;5073601;28;20029;-68
2022/10/12 06:06:23;;;;;;;6.57;4.72;;;13.00;61.90;;;;;;5074164;28;20032;-68
2022/10/12 06:08:49;;;;;;;9.13;4.68;;;13.00;61.90;;;;;;5072801;28;20068;-68
2022/10/12 06:11:15;;;;;;;7.20;5.03;;;13.00;61.90;;;;;;5076087;28;20074;-68
2022/10/12 06:13:40;;;;;;;9.63;4.93;;;13.00;61.90;;;;;;5077466;28;20025;-68
2022/10/12 06:16:06;;;;;;;7.93;4.93;;;13.00;62.00;;;;;;5073852;28;20036;-68
2022/10/12 06:18:32;;;;;;;6.90;4.47;;;13.00;62.00;;;;;;5065738;28;20080;-68
2022/10/12 06:20:58;;;;;;;7.25;5.00;;;12.90;62.40;;;;;;5073500;28;20032;-68
2022/10/12 06:23:23;;;;;;;8.35;5.45;;;12.90;62.50;;;;;;5069644;28;20029;-68
2022/10/12 06:25:51;;;;;;;5.95;4.60;;;12.90;62.70;;;;;;5051603;28;20503;-68
2022/10/12 06:28:21;;;;;;;7.55;5.07;;;12.90;62.80;;;;;;5071194;28;20059;-67
2022/10/12 06:30:53;;;;;;;8.10;5.28;;;12.90;63.00;;;;;;5071401;28;20063;-68
2022/10/12 06:33:18;;;;;;;7.38;4.88;;;12.90;63.20;;;;;;5048991;28;20255;-68
2022/10/12 06:35:44;;;;;;;7.88;5.00;;;12.90;63.30;;;;;;5067861;28;20037;-68
2022/10/12 06:38:10;;;;;;;7.30;4.95;;;12.90;63.50;;;;;;5072716;28;20053;-68
2022/10/12 06:40:35;;;;;;;7.18;4.57;;;12.90;63.70;;;;;;5069302;28;20029;-68
2022/10/12 06:43:01;;;;;;;6.75;4.57;;;12.90;64.00;;;;;;5038690;28;20032;-69
2022/10/12 06:45:28;;;;;;;6.28;4.20;;;12.90;64.20;;;;;;5059948;28;20035;-68
2022/10/12 06:47:56;;;;;;;6.80;4.65;;;13.00;64.50;;;;;;5062723;28;20097;-68
2022/10/12 06:50:22;;;;;;;6.30;4.13;;;13.00;64.80;;;;;;5064620;28;20029;-68
2022/10/12 06:52:47;;;;;;;6.30;4.70;;;13.00;65.00;;;;;;5064934;28;20033;-67
2022/10/12 06:55:13;;;;;;;5.18;4.10;;;13.10;65.20;;;;;;5048093;28;20038;-67
2022/10/12 06:57:38;;;;;;;6.55;4.47;;;13.10;65.40;;;;;;5061143;28;20052;-67
2022/10/12 07:00:06;;;;;;;7.85;4.70;;;13.20;65.70;;;;;;5067950;28;20063;-68
2022/10/12 07:02:32;;;;;;;5.53;4.10;;;13.20;65.80;;;;;;5065468;28;20029;-68
2022/10/12 07:04:58;;;;;;;5.65;4.30;;;13.20;65.90;;;;;;5034882;28;20052;-68
2022/10/12 07:07:23;;;;;;;6.22;4.22;;;13.30;66.20;;;;;;5058383;28;20078;-68
2022/10/12 07:09:50;;;;;;;5.95;4.38;;;13.30;66.30;;;;;;5065198;28;20756;-68
2022/10/12 07:12:17;;;;;;;5.78;4.15;;;13.30;66.30;;;;;;5068340;28;20071;-69
2022/10/12 07:14:42;;;;;;;5.20;4.03;;;13.40;66.40;;;;;;5056772;28;20029;-68
2022/10/12 07:17:08;;;;;;;6.30;4.22;;;13.40;66.60;;;;;;5061561;28;20401;-68
2022/10/12 07:19:34;;;;;;;6.70;5.00;;;13.40;67.30;;;;;;5058256;28;20697;-68
2022/10/12 07:22:00;;;;;;;7.45;4.35;;;13.40;66.70;;;;;;5057678;28;20033;-68
2022/10/12 07:24:34;;;;;;;6.88;4.28;;;13.50;66.80;;;;;;5071838;28;20116;-68
2022/10/12 07:27:00;;;;;;;5.22;3.90;;;13.50;66.80;;;;;;5044667;28;20636;-68
2022/10/12 07:29:25;;;;;;;5.20;3.90;;;13.50;66.80;;;;;;5066254;28;20029;-68
2022/10/12 07:31:51;;;;;;;6.03;4.28;;;13.50;66.90;;;;;;5069471;28;20078;-70
2022/10/12 07:34:17;;;;;;;6.07;4.00;;;13.50;67.00;;;;;;5041559;28;20546;-69
2022/10/12 07:36:43;;;;;;;6.65;4.47;;;13.60;67.10;;;;;;5051342;28;20177;-69
2022/10/12 07:39:09;;;;;;;6.15;4.35;;;13.60;67.20;;;;;;5052740;28;20122;-69
2022/10/12 07:41:35;;;;;;;5.15;4.10;;;13.60;67.30;;;;;;5039189;28;20815;-69
2022/10/12 07:44:00;;;;;;;7.65;4.43;;;13.60;67.40;;;;;;5040841;28;20037;-69
2022/10/12 07:46:26;;;;;;;5.95;4.13;;;13.60;67.60;;;;;;5047055;28;20132;-69
2022/10/12 07:48:52;;;;;;;7.03;4.80;;;13.60;67.60;;;;;;5046407;28;20039;-69
2022/10/12 07:51:18;;;;;;;5.72;4.40;;;13.60;67.60;;;;;;5044481;28;20056;-69
2022/10/12 07:53:44;;;;;;;6.47;4.30;;;13.70;67.80;;;;;;5037994;28;20102;-68
2022/10/12 07:56:14;;;;;;;6.68;4.72;;;13.70;68.00;;;;;;5036191;28;20487;-69
2022/10/12 07:58:40;;;;;;;5.05;3.72;;;13.70;68.20;;;;;;5022773;28;20511;-69
2022/10/12 08:01:07;;;;;;;6.07;3.95;;;13.70;68.20;;;;;;5038863;28;20025;-69
2022/10/12 08:03:33;;;;;;;5.25;3.70;;;13.70;68.30;;;;;;5045091;28;20467;-69
2022/10/12 08:05:59;;;;;;;5.50;4.10;;;13.70;68.40;;;;;;5053322;28;20029;-70
2022/10/12 08:08:24;;;;;;;6.38;4.20;;;13.70;68.60;;;;;;5044540;28;20028;-69
2022/10/12 08:10:50;;;;;;;6.68;4.32;;;13.80;68.60;;;;;;5051963;28;20028;-69
2022/10/12 08:13:16;;;;;;;5.05;3.97;;;13.80;68.80;;;;;;5039513;28;20160;-69
2022/10/12 08:15:48;;;;;;;6.43;4.43;;;13.80;69.00;;;;;;5044880;28;20020;-69
2022/10/12 08:18:13;;;;;;;7.82;5.43;;;13.80;69.10;;;;;;5046014;28;20024;-69
2022/10/12 08:20:40;;;;;;;7.18;5.18;;;13.80;69.20;;;;;;5045057;28;20494;-69
2022/10/12 08:23:07;;;;;;;6.97;4.50;;;13.80;69.30;;;;;;5050774;28;20029;-69
2022/10/12 08:25:33;;;;;;;6.00;4.72;;;13.90;69.50;;;;;;5054436;28;20086;-69
2022/10/12 08:27:59;;;;;;;5.28;3.90;;;13.90;69.60;;;;;;5035371;28;20056;-69
2022/10/12 08:30:26;;;;;;;5.10;3.88;;;13.90;69.70;;;;;;5049181;28;20143;-69
2022/10/12 08:32:52;;;;;;;5.38;3.65;;;14.00;69.80;;;;;;5050016;28;20033;-69
2022/10/12 08:35:19;;;;;;;5.80;4.30;;;14.00;69.80;;;;;;5044281;28;20043;-69
2022/10/12 08:37:45;;;;;;;5.55;4.40;;;14.00;69.90;;;;;;5032964;28;20035;-69
2022/10/12 08:40:19;;;;;;;6.47;4.60;;;14.00;70.10;;;;;;5046441;28;20032;-69
2022/10/12 08:42:55;;;;;;;5.22;4.18;;;14.10;70.20;;;;;;5051351;28;20086;-69
2022/10/12 08:45:44;;;;;;;6.43;4.30;;;14.10;70.30;;;;;;5053575;28;20020;-69
2022/10/12 08:48:16;;;;;;;5.72;4.05;;;14.10;70.30;;;;;;5051300;28;20064;-69
2022/10/12 08:50:54;;;;;;;5.82;4.40;;;14.20;70.30;;;;;;5041767;28;20067;-69
2022/10/12 08:53:29;;;;;;;6.97;4.40;;;14.20;70.40;;;;;;5051100;28;20641;-69
2022/10/12 08:55:55;;;;;;;5.15;3.55;;;14.20;70.50;;;;;;5042945;28;20025;-68
2022/10/12 08:58:31;;;;;;;6.10;4.38;;;14.20;70.50;;;;;;5035082;28;20036;-67
2022/10/12 09:01:12;;;;;;;5.65;4.00;;;14.30;70.60;;;;;;5046185;28;20032;-67
2022/10/12 09:03:56;;;;;;;5.53;4.50;;;14.30;70.70;;;;;;5043356;28;21019;-68
2022/10/12 09:06:24;;;;;;;5.43;4.13;;;14.30;70.70;;;;;;5046717;28;20159;-67
2022/10/12 09:08:49;;;;;;;5.95;4.05;;;14.40;70.80;;;;;;5046928;28;20078;-68
2022/10/12 09:11:18;;;;;;;5.75;4.25;;;14.40;70.90;;;;;;5022067;28;20495;-67
2022/10/12 09:14:06;;;;;;;5.47;4.40;;;14.40;70.90;;;;;;5049950;28;20650;-67
2022/10/12 09:16:36;;;;;;;4.75;4.07;;;14.40;70.90;;;;;;5048073;28;20031;-67
2022/10/12 09:19:10;;;;;;;6.90;4.60;;;14.50;71.10;;;;;;5045508;28;20049;-67
2022/10/12 09:21:40;;;;;;;5.18;4.00;;;14.50;71.20;;;;;;5028871;28;20037;-65
2022/10/12 09:24:20;;;;;;;7.13;4.70;;;14.60;71.30;;;;;;5051349;28;20027;-66
2022/10/12 09:26:50;;;;;;;5.38;4.05;;;14.60;71.20;;;;;;5051594;28;20064;-67
2022/10/12 09:29:23;;;;;;;5.95;4.30;;;14.60;71.30;;;;;;5056724;28;20213;-67
2022/10/12 09:32:00;;;;;;;5.82;4.55;;;14.60;71.30;;;;;;5045856;28;20118;-67
2022/10/12 09:34:26;;;;;;;6.10;4.50;;;14.70;71.30;;;;;;5024341;28;20029;-66
2022/10/12 09:36:54;;;;;;;4.82;4.10;;;14.70;71.30;;;;;;5052883;28;20094;-66
2022/10/12 09:39:26;;;;;;;8.15;4.90;;;14.70;71.40;;;;;;5049540;28;20459;-66
2022/10/12 09:41:52;;;;;;;5.28;4.40;;;14.70;71.40;;;;;;5047612;28;20024;-66
2022/10/12 09:44:38;;;;;;;6.78;4.30;;;14.70;71.50;;;;;;5041374;28;20108;-67
2022/10/12 09:47:27;;;;;;;5.85;4.07;;;14.70;71.40;;;;;;5053752;28;20025;-66
2022/10/12 09:50:02;;;;;;;6.07;3.80;;;14.80;71.70;;;;;;5069424;28;20009;-66
2022/10/12 09:52:34;;;;;;;4.60;3.50;;;14.80;71.50;;;;;;5058043;28;20032;-65
2022/10/12 09:55:00;;;;;;;;;;;14.80;71.50;;;;;;5062296;28;20043;-65
2022/10/12 09:57:34;;;;;;;4.68;3.30;;;14.80;71.60;;;;;;5060806;28;19916;-66
2022/10/12 10:00:07;;;;;;;5.85;4.18;;;14.80;71.40;;;;;;5058249;28;20067;-68
2022/10/12 10:02:46;;;;;;;6.47;4.75;;;14.90;71.50;;;;;;5031860;28;20053;-66
2022/10/12 10:05:25;;;;;;;5.32;3.80;;;14.80;71.50;;;;;;5054849;28;20697;-67
2022/10/12 10:07:52;;;;;;;5.50;4.47;;;14.90;71.40;;;;;;5066282;28;20028;-66
2022/10/12 10:10:21;;;;;;;6.63;4.90;;;14.90;71.60;;;;;;5071884;28;20044;-66
2022/10/12 10:12:50;;;;;;;7.20;4.45;;;14.90;71.50;;;;;;5072878;28;20029;-66
2022/10/12 10:15:32;;;;;;;6.28;4.80;;;14.90;71.50;;;;;;5073532;28;20088;-66
2022/10/12 10:18:16;;;;;;;6.45;4.55;;;14.90;71.60;;;;;;5083982;28;20024;-66
2022/10/12 10:20:58;;;;;;;4.72;3.88;;;14.90;71.60;;;;;;5072837;28;20045;-66
2022/10/12 10:23:42;;;;;;;6.65;4.88;;;15.00;71.80;;;;;;5058531;28;20098;-67
2022/10/12 10:26:15;;;;;;;7.50;5.30;;;15.00;71.60;;;;;;5064098;28;20040;-67
2022/10/12 10:28:43;;;;;;;6.22;4.80;;;15.00;71.80;;;;;;5058120;28;20056;-67
2022/10/12 10:31:12;;;;;;;7.65;4.90;;;15.00;71.70;;;;;;5061557;28;20039;-66
2022/10/12 10:33:39;;;;;;;5.45;4.13;;;15.00;71.80;;;;;;5056536;28;20032;-66
2022/10/12 10:36:04;;;;;;;6.05;4.32;;;15.00;71.80;;;;;;5051516;28;20102;-66
2022/10/12 10:38:36;;;;;;;5.97;4.57;;;15.00;71.90;;;;;;5065740;28;20036;-66
2022/10/12 10:41:05;;;;;;;5.65;4.28;;;15.10;72.00;;;;;;5050202;28;20013;-67
2022/10/12 10:43:31;;;;;;;5.82;4.65;;;15.10;71.90;;;;;;5050854;28;20029;-66
2022/10/12 10:46:02;;;;;;;8.65;5.25;;;15.10;71.90;;;;;;5055663;28;20021;-66
2022/10/12 10:48:32;;;;;;;6.40;4.80;;;15.10;71.90;;;;;;5051762;28;20024;-66
2022/10/12 10:51:01;;;;;;;6.65;4.40;;;15.10;71.90;;;;;;5050255;28;20421;-66
2022/10/12 10:53:43;;;;;;;4.40;3.72;;;15.10;71.90;;;;;;5050912;28;20032;-67
2022/10/12 10:56:30;;;;;;;5.75;4.60;;;15.10;71.80;;;;;;5046825;28;20031;-66
2022/10/12 10:59:02;;;;;;;6.93;4.93;;;15.10;71.80;;;;;;5051543;28;20025;-67
2022/10/12 11:01:55;;;;;;;5.20;3.88;;;15.20;71.70;;;;;;5092215;22;20058;-88
2022/10/12 11:04:34;;;;;;;6.78;4.60;;;15.20;71.60;;;;;;5112378;22;20493;-86
2022/10/12 11:07:15;;;;;;;4.57;3.65;;;15.20;71.40;;;;;;5077375;28;20035;-84
2022/10/12 11:09:44;;;;;;;5.68;3.97;;;15.20;71.20;;;;;;5089085;28;20023;-86
2022/10/12 11:12:21;;;;;;;5.78;4.25;;;15.20;71.20;;;;;;5089978;28;20031;-85
2022/10/12 11:14:51;;;;;;;5.90;4.28;;;15.20;71.10;;;;;;5100241;28;20051;-83
2022/10/12 11:17:33;;;;;;;5.53;4.20;;;15.20;71.10;;;;;;5081195;28;20023;-83
2022/10/12 11:20:17;;;;;;;4.72;3.53;;;15.20;70.90;;;;;;5079093;28;20082;-83
2022/10/12 11:22:48;;;;;;;5.88;3.92;;;15.20;70.70;;;;;;5078578;28;20053;-88
2022/10/12 11:28:38;;;;;;;5.22;3.90;;;15.20;70.50;;;;;;5019343;28;20114;-85
2022/10/12 11:31:11;;;;;;;4.55;3.35;;;15.30;70.50;;;;;;5021355;28;20025;-85
2022/10/12 11:33:43;;;;;;;5.45;3.72;;;15.20;70.40;;;;;;5038625;28;20077;-84
2022/10/12 11:36:26;;;;;;;5.70;3.90;;;15.30;70.50;;;;;;5083810;28;20028;-85
2022/10/12 11:38:59;;;;;;;5.45;3.75;;;15.30;70.40;;;;;;5075767;28;20034;-85
2022/10/12 11:41:49;;;;;;;5.32;3.67;;;15.30;70.30;;;;;;5075810;28;20031;-84
2022/10/12 11:44:26;;;;;;;4.57;3.50;;;15.30;70.20;;;;;;5043230;28;20031;-84
2022/10/12 11:47:02;;;;;;;4.82;3.28;;;15.30;70.20;;;;;;5097466;28;20036;-84
2022/10/12 11:49:51;;;;;;;5.32;3.78;;;15.30;70.10;;;;;;5080918;28;20023;-85
2022/10/12 11:52:18;;;;;;;4.38;3.45;;;15.40;70.00;;;;;;5089472;28;20666;-84
2022/10/12 11:54:55;;;;;;;4.65;3.50;;;15.40;70.10;;;;;;5091390;28;20035;-86
2022/10/12 11:57:29;;;;;;;5.38;3.95;;;15.40;70.00;;;;;;5073312;28;20024;-85
2022/10/12 12:00:00;;;;;;;5.28;3.60;;;15.40;70.00;;;;;;5076518;28;20639;-85
2022/10/12 12:02:28;;;;;;;;;;;15.40;70.00;;;;;;5098577;28;20043;-83
2022/10/12 12:04:54;;;;;;;3.75;3.10;;;15.30;69.90;;;;;;5073147;28;19972;-83
2022/10/12 12:07:42;;;;;;;3.55;2.95;;;15.30;69.80;;;;;;5094427;28;20051;-83
2022/10/12 12:10:36;;;;;;;4.72;3.10;;;15.40;69.80;;;;;;5083890;28;20122;-83
2022/10/12 12:13:21;;;;;;;3.90;3.00;;;15.40;69.80;;;;;;5077038;28;20571;-83
2022/10/12 12:15:48;;;;;;;3.78;3.08;;;15.40;69.90;;;;;;5083438;27;20023;-84
2022/10/12 12:18:18;;;;;;;5.43;3.42;;;15.40;70.00;;;;;;5077353;28;20036;-84
2022/10/12 12:20:44;;;;;;;5.07;3.42;;;15.40;69.90;;;;;;5084125;28;20036;-83
2022/10/12 12:23:27;;;;;;;4.50;3.60;;;15.40;69.90;;;;;;5096916;27;20035;-83
2022/10/12 12:26:08;;;;;;;4.70;3.58;;;15.40;69.70;;;;;;5080012;28;20590;-83
2022/10/12 12:28:37;;;;;;;3.92;3.03;;;15.40;69.40;;;;;;5096487;28;20110;-83
2022/10/12 12:31:21;;;;;;;2.65;2.45;;;15.40;69.00;;;;;;5074797;28;20031;-82
2022/10/12 12:33:50;;;;;;;3.88;3.05;;;15.40;68.80;;;;;;5078157;28;20020;-82
2022/10/12 12:36:43;;;;;;;4.75;3.10;;;15.40;68.60;;;;;;5079719;28;20027;-83
2022/10/12 12:39:22;;;;;;;3.45;3.15;;;15.50;68.40;;;;;;5079176;27;20151;-82
2022/10/12 12:41:57;;;;;;;4.60;2.95;;;15.50;68.30;;;;;;5076155;28;20024;-84
2022/10/12 12:44:43;;;;;;;3.67;2.70;;;15.50;68.30;;;;;;5074894;28;20053;-83
2022/10/12 12:47:09;;;;;;;2.90;2.50;;;15.50;68.00;;;;;;5082159;27;20138;-82
2022/10/12 12:49:55;;;;;;;2.97;2.60;;;15.50;67.90;;;;;;5083810;28;20031;-82
2022/10/12 12:52:27;;;;;;;3.22;2.75;;;15.50;67.60;;;;;;5078878;28;20038;-82
2022/10/12 12:55:27;;;;;;;4.25;3.00;;;15.50;67.30;;;;;;5083711;28;20642;-83
2022/10/12 12:58:23;;;;;;;2.92;2.45;;;15.50;66.90;;;;;;5104477;27;20031;-85
2022/10/12 13:01:01;;;;;;;3.33;2.40;;;15.50;66.60;;;;;;5085135;28;20126;-82
2022/10/12 13:03:38;;;;;;;2.50;2.30;;;15.50;66.40;;;;;;5075654;28;20024;-83
2022/10/12 13:06:48;;;;;;;2.53;2.33;;;15.40;66.20;;;;;;5101461;27;20046;-83
2022/10/12 13:09:28;;;;;;;3.97;2.78;;;15.40;66.00;;;;;;5084369;28;20301;-83